Terminal Aerodrome Forecast
Issued by NWS

Home | Current Version | Previous Version | Text Only | Print | Product List | Glossary Off
Versions: 1 2 3 4 5 6 7 8 9 10 11 12 13 14

000
FTUS42 KTBW 230520
TAFRSW
TAF
KRSW 230520Z 2306/2406 10004KT P6SM FEW030 SCT100 BKN250
     FM231400 15009KT P6SM SCT030 BKN250
     FM231700 22010G15KT P6SM BKN050 OVC100
     FM232300 24008KT P6SM BKN050=

USA.gov is the U.S. government's official web portal to all federal, state and local government web resources and services.